createdAt,value
2022-12-20T00:02:01.644Z,16.42
2022-12-20T00:04:30.731Z,15.43
2022-12-20T00:06:58.460Z,15.02
2022-12-20T00:09:26.379Z,13.98
2022-12-20T00:11:54.141Z,16.30
2022-12-20T00:14:21.980Z,15.73
2022-12-20T00:16:49.697Z,14.80
2022-12-20T00:19:17.490Z,13.20
2022-12-20T00:21:46.532Z,14.27
2022-12-20T00:24:14.281Z,14.57
2022-12-20T00:26:42.010Z,15.75
2022-12-20T00:29:09.895Z,14.75
2022-12-20T00:31:37.751Z,14.35
2022-12-20T00:34:05.498Z,12.60
2022-12-20T00:36:34.114Z,14.10
2022-12-20T00:39:03.671Z,13.43
2022-12-20T00:41:34.123Z,14.73
2022-12-20T00:44:01.952Z,14.85
2022-12-20T00:46:31.571Z,15.07
2022-12-20T00:49:00.277Z,14.57
2022-12-20T00:51:31.927Z,14.02
2022-12-20T00:54:00.107Z,13.32
2022-12-20T00:56:29.251Z,13.05
2022-12-20T00:58:59.369Z,15.13
2022-12-20T01:01:30.201Z,13.10
2022-12-20T01:03:58.301Z,14.90
2022-12-20T01:06:26.868Z,13.52
2022-12-20T01:08:55.650Z,14.00
2022-12-20T01:11:24.942Z,13.18
2022-12-20T01:13:57.048Z,13.70
2022-12-20T01:16:27.489Z,12.70
2022-12-20T01:18:55.896Z,12.98
2022-12-20T01:21:25.485Z,14.73
2022-12-20T01:23:53.308Z,14.15
2022-12-20T01:26:23.175Z,12.77
2022-12-20T01:28:56.215Z,13.23
2022-12-20T01:31:24.849Z,12.80
2022-12-20T01:33:53.612Z,13.40
2022-12-20T01:36:24.999Z,12.57
2022-12-20T01:38:56.690Z,13.77
2022-12-20T01:41:24.569Z,13.20
2022-12-20T01:43:55.845Z,12.95
2022-12-20T01:46:25.834Z,14.18
2022-12-20T01:48:56.233Z,13.98
2022-12-20T01:51:25.355Z,14.55
2022-12-20T01:53:59.453Z,15.50
2022-12-20T01:56:27.248Z,14.75
2022-12-20T01:58:57.385Z,13.70
2022-12-20T02:01:26.356Z,14.05
2022-12-20T02:03:56.692Z,13.63
2022-12-20T02:06:26.494Z,13.45
2022-12-20T02:08:57.400Z,13.23
2022-12-20T02:11:38.545Z,13.15
2022-12-20T02:14:15.704Z,14.60
2022-12-20T02:16:52.644Z,12.10
2022-12-20T02:19:41.771Z,12.90
2022-12-20T02:22:24.461Z,14.32
2022-12-20T02:25:14.436Z,12.95
2022-12-20T02:28:01.186Z,12.77
2022-12-20T02:30:35.625Z,12.50
2022-12-20T02:35:34.482Z,11.90
2022-12-20T02:38:04.995Z,13.73
2022-12-20T02:40:40.183Z,12.18
2022-12-20T02:43:32.638Z,12.13
2022-12-20T02:46:02.541Z,13.85
2022-12-20T02:48:34.175Z,14.68
2022-12-20T02:51:05.833Z,15.65
2022-12-20T02:53:34.879Z,14.15
2022-12-20T02:56:10.437Z,13.15
2022-12-20T02:58:44.858Z,13.00
2022-12-20T03:01:18.578Z,16.13
2022-12-20T03:03:46.827Z,14.13
2022-12-20T03:06:14.749Z,13.23
2022-12-20T03:08:43.011Z,14.10
2022-12-20T03:11:11.058Z,13.23
2022-12-20T03:13:38.775Z,13.80
2022-12-20T03:16:10.726Z,13.30
2022-12-20T03:18:40.697Z,14.48
2022-12-20T03:21:08.632Z,12.35
2022-12-20T03:23:36.524Z,13.75
2022-12-20T03:26:04.740Z,12.75
2022-12-20T03:28:37.101Z,15.23
2022-12-20T03:31:05.545Z,13.07
2022-12-20T03:33:41.093Z,13.10
2022-12-20T03:36:09.822Z,13.20
2022-12-20T03:38:37.753Z,14.23
2022-12-20T03:41:07.895Z,15.60
2022-12-20T03:43:35.864Z,13.60
2022-12-20T03:46:04.681Z,14.80
2022-12-20T03:48:36.120Z,15.25
2022-12-20T03:51:05.782Z,13.30
2022-12-20T03:53:34.798Z,13.93
2022-12-20T03:56:02.594Z,14.02
2022-12-20T03:58:30.903Z,14.02
2022-12-20T04:00:58.883Z,13.15
2022-12-20T04:03:47.132Z,14.18
2022-12-20T04:06:16.854Z,15.93
2022-12-20T04:08:45.554Z,15.18
2022-12-20T04:11:19.166Z,14.38
2022-12-20T04:14:03.005Z,15.00
2022-12-20T04:16:31.942Z,14.38
2022-12-20T04:19:01.245Z,14.40
2022-12-20T04:21:36.018Z,14.65
2022-12-20T04:24:05.929Z,13.13
2022-12-20T04:26:43.110Z,15.95
2022-12-20T04:29:11.952Z,14.20
2022-12-20T04:31:42.459Z,14.95
2022-12-20T04:34:10.556Z,15.10
2022-12-20T04:36:40.828Z,17.27
2022-12-20T04:39:14.834Z,17.27
2022-12-20T04:42:00.304Z,13.73
2022-12-20T04:44:28.926Z,14.45
2022-12-20T04:46:56.880Z,14.55
2022-12-20T04:49:25.466Z,15.10
2022-12-20T04:51:54.544Z,15.88
2022-12-20T04:54:21.346Z,14.02
2022-12-20T04:56:59.609Z,13.65
2022-12-20T04:59:27.536Z,13.25
2022-12-20T05:01:56.395Z,12.18
2022-12-20T05:04:43.243Z,12.73
2022-12-20T05:07:12.515Z,12.80
2022-12-20T05:09:43.665Z,14.20
2022-12-20T05:12:11.494Z,12.88
2022-12-20T05:14:39.686Z,13.63
2022-12-20T05:17:07.528Z,12.95
2022-12-20T05:19:35.926Z,11.82
2022-12-20T05:22:21.221Z,13.02
2022-12-20T05:25:24.209Z,12.57
2022-12-20T05:27:53.706Z,13.75
2022-12-20T05:30:24.796Z,12.75
2022-12-20T05:32:52.771Z,11.82
2022-12-20T05:35:21.174Z,13.93
2022-12-20T05:37:54.054Z,12.93
2022-12-20T05:40:23.797Z,13.32
2022-12-20T05:42:51.836Z,13.30
2022-12-20T05:45:21.968Z,12.90
2022-12-20T05:47:55.310Z,14.25
2022-12-20T05:50:23.044Z,12.63
2022-12-20T05:53:21.741Z,13.65
2022-12-20T05:55:55.248Z,13.50
2022-12-20T05:58:27.991Z,11.85
2022-12-20T06:01:01.941Z,12.77
2022-12-20T06:03:31.118Z,14.50
2022-12-20T06:06:00.325Z,12.68
2022-12-20T06:08:31.802Z,11.88
2022-12-20T06:11:04.970Z,12.75
2022-12-20T06:13:37.958Z,12.88
2022-12-20T06:16:06.200Z,12.38
2022-12-20T06:18:34.136Z,12.90
2022-12-20T06:21:04.272Z,11.45
2022-12-20T06:23:32.109Z,12.88
2022-12-20T06:26:09.529Z,12.32
2022-12-20T06:28:46.022Z,13.45
2022-12-20T06:31:14.755Z,12.05
2022-12-20T06:33:45.808Z,12.45
2022-12-20T06:36:16.531Z,13.73
2022-12-20T06:38:44.571Z,14.00
2022-12-20T06:41:13.827Z,12.43
2022-12-20T06:43:41.771Z,13.38
2022-12-20T06:46:09.719Z,14.02
2022-12-20T06:48:38.244Z,12.57
2022-12-20T06:51:08.143Z,14.10
2022-12-20T06:53:36.250Z,12.32
2022-12-20T06:56:04.381Z,12.05
2022-12-20T06:58:34.279Z,11.80
2022-12-20T07:01:02.224Z,12.95
2022-12-20T07:03:30.163Z,12.68
2022-12-20T07:05:57.995Z,12.30
2022-12-20T07:08:26.160Z,15.80
2022-12-20T07:10:54.599Z,14.50
2022-12-20T07:13:22.362Z,15.18
2022-12-20T07:16:00.172Z,14.75
2022-12-20T07:18:27.961Z,13.05
2022-12-20T07:20:56.017Z,12.23
2022-12-20T07:23:23.727Z,13.57
2022-12-20T07:25:56.329Z,14.18
2022-12-20T07:28:26.090Z,13.90
2022-12-20T07:30:54.204Z,13.75
2022-12-20T07:33:23.305Z,15.15
2022-12-20T07:35:54.666Z,13.15
2022-12-20T07:38:22.758Z,13.00
2022-12-20T07:40:50.585Z,13.65
2022-12-20T07:43:18.346Z,13.65
2022-12-20T07:45:47.570Z,11.70
2022-12-20T07:48:19.784Z,13.95
2022-12-20T07:50:52.916Z,12.18
2022-12-20T07:53:21.250Z,12.95
2022-12-20T07:55:50.312Z,12.88
2022-12-20T07:58:19.825Z,12.50
2022-12-20T08:00:47.977Z,12.18
2022-12-20T08:03:20.453Z,12.70
2022-12-20T08:05:54.547Z,11.05
2022-12-20T08:08:23.420Z,13.02
2022-12-20T08:10:52.059Z,11.35
2022-12-20T08:13:20.001Z,11.00
2022-12-20T08:15:47.828Z,10.75
2022-12-20T08:18:16.171Z,11.70
2022-12-20T08:20:44.043Z,10.38
2022-12-20T08:23:13.192Z,14.20
2022-12-20T08:25:42.099Z,12.13
2022-12-20T08:28:10.202Z,12.60
2022-12-20T08:30:38.572Z,11.48
2022-12-20T08:33:06.609Z,11.98
2022-12-20T08:35:34.526Z,11.88
2022-12-20T08:38:02.305Z,12.25
2022-12-20T08:40:31.549Z,11.82
2022-12-20T08:43:02.413Z,10.57
2022-12-20T08:45:34.479Z,11.45
2022-12-20T08:48:02.265Z,11.52
2022-12-20T08:50:30.048Z,10.75
2022-12-20T08:52:57.776Z,11.45
2022-12-20T08:55:27.946Z,12.73
2022-12-20T08:57:58.727Z,10.98
2022-12-20T09:00:26.455Z,10.65
2022-12-20T09:02:55.816Z,11.10
2022-12-20T09:05:23.911Z,10.95
2022-12-20T09:07:51.750Z,10.55
2022-12-20T09:10:19.587Z,11.63
2022-12-20T09:12:47.420Z,11.98
2022-12-20T09:15:16.706Z,11.95
2022-12-20T09:17:44.488Z,10.80
2022-12-20T09:20:12.655Z,10.38
2022-12-20T09:22:40.687Z,11.05
2022-12-20T09:25:09.377Z,10.80
2022-12-20T09:27:38.091Z,10.45
2022-12-20T09:30:06.625Z,11.00
2022-12-20T09:32:35.836Z,10.95
2022-12-20T09:35:03.573Z,11.30
2022-12-20T09:37:32.390Z,10.45
2022-12-20T09:40:00.345Z,11.07
2022-12-20T09:42:30.263Z,10.82
2022-12-20T09:45:04.512Z,10.30
2022-12-20T09:47:34.931Z,10.15
2022-12-20T09:50:06.139Z,9.88
2022-12-20T09:52:48.562Z,10.63
2022-12-20T09:55:25.161Z,12.35
2022-12-20T09:58:08.131Z,13.52
2022-12-20T10:00:41.604Z,12.82
2022-12-20T10:03:15.147Z,10.70
2022-12-20T10:05:52.262Z,10.85
2022-12-20T10:08:38.418Z,9.93
2022-12-20T10:11:15.623Z,9.77
2022-12-20T10:13:55.955Z,9.35
2022-12-20T10:16:36.789Z,9.35
2022-12-20T10:19:20.636Z,9.77
2022-12-20T10:21:59.867Z,9.77
2022-12-20T10:24:31.418Z,9.73
2022-12-20T10:27:03.415Z,9.05
2022-12-20T10:29:31.194Z,8.63
2022-12-20T10:32:02.078Z,9.10
2022-12-20T10:34:36.899Z,8.27
2022-12-20T10:37:16.702Z,9.55
2022-12-20T10:39:48.304Z,9.00
2022-12-20T10:42:39.080Z,7.88
2022-12-20T10:45:34.105Z,8.80
2022-12-20T10:48:06.142Z,7.70
2022-12-20T10:50:34.603Z,8.98
2022-12-20T10:53:25.491Z,8.02
2022-12-20T10:55:53.997Z,8.70
2022-12-20T10:58:33.346Z,8.23
2022-12-20T11:01:17.915Z,9.80
2022-12-20T11:03:58.398Z,9.80
2022-12-20T11:06:30.305Z,9.98
2022-12-20T11:09:30.553Z,10.80
2022-12-20T11:12:01.780Z,10.77
2022-12-20T11:14:38.327Z,10.50
2022-12-20T11:17:21.002Z,9.90
2022-12-20T11:20:02.213Z,10.27
2022-12-20T11:22:42.151Z,9.70
2022-12-20T11:25:29.647Z,10.52
2022-12-20T11:28:17.455Z,12.20
2022-12-20T11:30:58.813Z,9.65
2022-12-20T11:33:42.499Z,10.68
2022-12-20T11:36:19.693Z,10.95
2022-12-20T11:38:52.179Z,11.43
2022-12-20T11:41:30.486Z,11.57
2022-12-20T11:44:25.201Z,11.32
2022-12-20T11:47:07.676Z,10.20
2022-12-20T11:50:02.925Z,9.27
2022-12-20T11:52:37.087Z,10.45
2022-12-20T11:55:17.955Z,10.57
2022-12-20T11:58:17.634Z,9.65
2022-12-20T12:00:52.616Z,9.93
2022-12-20T12:03:27.992Z,9.07
2022-12-20T12:05:59.646Z,10.68
2022-12-20T12:08:35.129Z,9.52
2022-12-20T12:11:07.231Z,9.52
2022-12-20T12:13:38.944Z,9.32
2022-12-20T12:16:13.952Z,9.48
2022-12-20T12:18:42.146Z,10.23
2022-12-20T12:21:18.456Z,10.80
2022-12-20T12:23:57.890Z,11.25
2022-12-20T12:26:28.569Z,11.65
2022-12-20T12:28:59.184Z,12.18
2022-12-20T12:31:33.304Z,12.00
2022-12-20T12:34:17.965Z,11.00
2022-12-20T12:37:18.362Z,9.98
2022-12-20T12:40:13.808Z,9.27
2022-12-20T12:43:10.632Z,8.85
2022-12-20T12:45:45.163Z,10.15
2022-12-20T12:50:48.578Z,8.02
2022-12-20T12:53:20.679Z,9.80
2022-12-20T12:55:50.698Z,8.80
2022-12-20T12:58:46.507Z,8.05
2022-12-20T13:01:51.736Z,8.30
2022-12-20T13:04:30.465Z,8.25
2022-12-20T13:07:26.944Z,8.70
2022-12-20T13:09:55.167Z,9.55
2022-12-20T13:12:58.870Z,8.85
2022-12-20T13:16:05.201Z,8.80
2022-12-20T13:18:34.511Z,8.07
2022-12-20T13:21:31.964Z,8.73
2022-12-20T13:24:36.155Z,8.38
2022-12-20T13:27:05.645Z,7.72
2022-12-20T13:29:36.628Z,8.43
2022-12-20T13:32:24.662Z,8.65
2022-12-20T13:34:58.209Z,8.02
2022-12-20T13:37:54.527Z,8.27
2022-12-20T13:40:31.458Z,9.25
2022-12-20T13:43:03.482Z,8.70
2022-12-20T13:45:32.683Z,8.75
2022-12-20T13:48:11.150Z,9.43
2022-12-20T13:50:42.747Z,10.27
2022-12-20T13:53:19.039Z,8.82
2022-12-20T13:55:48.882Z,7.75
2022-12-20T13:58:19.815Z,8.38
2022-12-20T14:00:48.516Z,8.35
2022-12-20T14:03:24.208Z,8.07
2022-12-20T14:06:00.522Z,8.75
2022-12-20T14:08:34.311Z,9.38
2022-12-20T14:11:10.758Z,9.88
2022-12-20T14:13:38.873Z,9.32
2022-12-20T14:16:14.367Z,8.85
2022-12-20T14:18:42.136Z,8.32
2022-12-20T14:21:11.943Z,8.70
2022-12-20T14:23:42.628Z,8.38
2022-12-20T14:26:13.919Z,8.05
2022-12-20T14:28:45.108Z,8.48
2022-12-20T14:31:25.392Z,7.90
2022-12-20T14:34:01.818Z,8.20
2022-12-20T14:36:31.716Z,8.07
2022-12-20T14:38:59.662Z,7.90
2022-12-20T14:41:33.652Z,7.75
2022-12-20T14:44:06.799Z,8.50
2022-12-20T14:46:36.113Z,7.55
2022-12-20T14:49:19.355Z,7.13
2022-12-20T14:51:49.185Z,7.90
2022-12-20T14:54:39.881Z,8.05
2022-12-20T14:57:12.728Z,8.20
2022-12-20T14:59:40.771Z,7.50
2022-12-20T15:02:32.540Z,8.93
2022-12-20T15:05:02.498Z,7.40
2022-12-20T15:07:32.997Z,8.32
2022-12-20T15:10:00.731Z,8.52
2022-12-20T15:12:28.672Z,8.50
2022-12-20T15:14:56.429Z,8.55
2022-12-20T15:17:34.158Z,8.95
2022-12-20T15:20:02.005Z,7.95
2022-12-20T15:22:29.786Z,7.95
2022-12-20T15:24:58.522Z,8.40
2022-12-20T15:27:26.251Z,9.30
2022-12-20T15:29:54.033Z,9.10
2022-12-20T15:32:29.622Z,8.88
2022-12-20T15:34:58.857Z,8.70
2022-12-20T15:37:26.677Z,8.88
2022-12-20T15:39:55.314Z,10.80
2022-12-20T15:42:24.545Z,10.48
2022-12-20T15:44:52.353Z,9.88
2022-12-20T15:47:20.037Z,10.88
2022-12-20T15:49:50.375Z,10.80
2022-12-20T15:52:23.379Z,9.75
2022-12-20T15:54:51.633Z,9.52
2022-12-20T15:57:20.789Z,8.98
2022-12-20T16:00:00.470Z,8.60
2022-12-20T16:02:31.170Z,8.15
2022-12-20T16:04:59.828Z,8.35
2022-12-20T16:07:29.084Z,7.47
2022-12-20T16:09:56.963Z,6.95
2022-12-20T16:12:28.155Z,6.50
2022-12-20T16:14:56.922Z,8.13
2022-12-20T16:17:25.017Z,7.60
2022-12-20T16:19:52.798Z,7.88
2022-12-20T16:22:22.894Z,7.35
2022-12-20T16:24:52.277Z,7.80
2022-12-20T16:27:20.402Z,9.57
2022-12-20T16:29:48.397Z,8.05
2022-12-20T16:32:18.198Z,7.53
2022-12-20T16:34:46.648Z,7.00
2022-12-20T16:37:14.516Z,9.40
2022-12-20T16:39:42.675Z,9.43
2022-12-20T16:42:15.122Z,8.30
2022-12-20T16:44:45.104Z,9.00
2022-12-20T16:47:14.430Z,8.05
2022-12-20T16:49:49.684Z,7.85
2022-12-20T16:52:21.676Z,8.02
2022-12-20T16:54:49.791Z,8.10
2022-12-20T16:57:18.950Z,8.07
2022-12-20T16:59:46.734Z,8.23
2022-12-20T17:02:23.449Z,7.93
2022-12-20T17:04:52.300Z,7.75
2022-12-20T17:07:20.044Z,7.35
2022-12-20T17:09:48.230Z,8.45
2022-12-20T17:12:16.875Z,8.80
2022-12-20T17:14:46.311Z,8.70
2022-12-20T17:17:14.687Z,7.43
2022-12-20T17:19:42.643Z,9.10
2022-12-20T17:22:24.544Z,8.15
2022-12-20T17:24:52.342Z,8.07
2022-12-20T17:27:20.165Z,8.20
2022-12-20T17:29:50.763Z,7.63
2022-12-20T17:32:21.740Z,9.10
2022-12-20T17:34:49.979Z,8.50
2022-12-20T17:37:20.849Z,9.82
2022-12-20T17:39:48.739Z,9.55
2022-12-20T17:42:17.270Z,9.25
2022-12-20T17:44:46.278Z,8.75
2022-12-20T17:47:17.171Z,8.10
2022-12-20T17:49:44.917Z,8.18
2022-12-20T17:52:15.019Z,7.32
2022-12-20T17:54:43.033Z,8.63
2022-12-20T17:57:15.316Z,8.88
2022-12-20T17:59:43.362Z,8.07
2022-12-20T18:02:20.679Z,8.48
2022-12-20T18:04:48.894Z,8.52
2022-12-20T18:07:16.782Z,9.90
2022-12-20T18:09:47.735Z,9.65
2022-12-20T18:12:15.594Z,9.00
2022-12-20T18:14:43.350Z,9.98
2022-12-20T18:17:11.303Z,9.60
2022-12-20T18:19:40.767Z,8.80
2022-12-20T18:22:08.590Z,9.18
2022-12-20T18:24:36.393Z,8.93
2022-12-20T18:27:04.204Z,9.27
2022-12-20T18:29:32.139Z,8.05
2022-12-20T18:32:00.018Z,9.45
2022-12-20T18:34:27.976Z,9.10
2022-12-20T18:36:57.084Z,9.38
2022-12-20T18:39:24.887Z,8.32
2022-12-20T18:41:52.630Z,8.15
2022-12-20T18:44:20.329Z,8.38
2022-12-20T18:46:48.092Z,9.68
2022-12-20T18:49:15.863Z,9.27
2022-12-20T18:51:43.915Z,9.20
2022-12-20T18:54:14.456Z,7.97
2022-12-20T18:56:42.277Z,9.55
2022-12-20T18:59:12.759Z,8.93
2022-12-20T19:01:43.189Z,9.63
2022-12-20T19:04:11.665Z,10.00
2022-12-20T19:06:39.774Z,9.25
2022-12-20T19:09:09.603Z,8.90
2022-12-20T19:11:39.134Z,9.57
2022-12-20T19:14:10.061Z,10.32
2022-12-20T19:16:40.222Z,11.00
2022-12-20T19:19:09.206Z,11.57
2022-12-20T19:21:38.917Z,11.80
2022-12-20T19:24:08.017Z,10.70
2022-12-20T19:26:39.014Z,11.73
2022-12-20T19:29:07.849Z,11.80
2022-12-20T19:31:37.694Z,11.85
2022-12-20T19:34:08.379Z,10.73
2022-12-20T19:36:38.946Z,11.30
2022-12-20T19:39:08.963Z,9.23
2022-12-20T19:41:38.094Z,9.13
2022-12-20T19:44:09.002Z,9.38
2022-12-20T19:46:36.846Z,9.20
2022-12-20T19:49:05.155Z,10.18
2022-12-20T19:51:33.801Z,8.95
2022-12-20T19:54:01.841Z,8.88
2022-12-20T19:56:31.637Z,9.55
2022-12-20T19:59:01.456Z,9.63
2022-12-20T20:01:30.003Z,10.70
2022-12-20T20:04:00.206Z,9.55
2022-12-20T20:06:28.826Z,9.73
2022-12-20T20:08:59.685Z,10.48
2022-12-20T20:11:28.954Z,10.48
2022-12-20T20:13:56.961Z,11.07
2022-12-20T20:16:26.441Z,10.15
2022-12-20T20:18:54.268Z,9.70
2022-12-20T20:21:23.917Z,10.07
2022-12-20T20:23:53.008Z,10.50
2022-12-20T20:26:25.493Z,11.63
2022-12-20T20:28:53.254Z,10.43
2022-12-20T20:31:22.098Z,10.25
2022-12-20T20:33:51.637Z,9.07
2022-12-20T20:36:21.628Z,8.95
2022-12-20T20:38:50.129Z,8.95
2022-12-20T20:41:18.380Z,9.30
2022-12-20T20:43:48.947Z,9.73
2022-12-20T20:46:18.505Z,9.60
2022-12-20T20:48:46.773Z,10.60
2022-12-20T20:51:15.950Z,9.55
2022-12-20T20:53:43.886Z,9.98
2022-12-20T20:56:12.294Z,8.57
2022-12-20T20:58:40.261Z,9.82
2022-12-20T21:01:09.703Z,9.48
2022-12-20T21:03:38.216Z,10.43
2022-12-20T21:06:39.207Z,9.50
2022-12-20T21:08:56.724Z,9.23
2022-12-20T21:11:24.987Z,9.73
2022-12-20T21:13:54.565Z,9.65
2022-12-20T21:16:24.298Z,9.57
2022-12-20T21:18:52.704Z,9.55
2022-12-20T21:21:21.335Z,10.23
2022-12-20T21:23:49.871Z,9.98
2022-12-20T21:26:20.229Z,10.32
2022-12-20T21:28:48.224Z,9.88
2022-12-20T21:31:18.619Z,10.68
2022-12-20T21:33:46.837Z,10.55
2022-12-20T21:36:15.874Z,9.93
2022-12-20T21:38:47.804Z,10.13
2022-12-20T21:41:15.586Z,10.55
2022-12-20T21:43:44.946Z,10.48
2022-12-20T21:46:13.210Z,10.85
2022-12-20T21:48:42.419Z,9.30
2022-12-20T21:51:12.743Z,9.38
2022-12-20T21:53:43.547Z,9.07
2022-12-20T21:56:11.787Z,10.85
2022-12-20T21:58:39.599Z,10.60
2022-12-20T22:01:10.050Z,10.45
2022-12-20T22:03:38.918Z,10.30
2022-12-20T22:06:07.191Z,10.15
2022-12-20T22:08:35.741Z,9.63
2022-12-20T22:11:06.359Z,10.55
2022-12-20T22:13:40.735Z,10.57
2022-12-20T22:16:11.704Z,10.85
2022-12-20T22:18:40.623Z,10.20
2022-12-20T22:21:10.215Z,10.75
2022-12-20T22:23:38.414Z,10.40
2022-12-20T22:26:07.758Z,11.07
2022-12-20T22:28:35.565Z,9.65
2022-12-20T22:31:07.678Z,9.93
2022-12-20T22:33:36.984Z,9.23
2022-12-20T22:36:05.290Z,11.88
2022-12-20T22:38:33.103Z,12.10
2022-12-20T22:41:08.271Z,11.73
2022-12-20T22:43:36.370Z,12.02
2022-12-20T22:46:04.710Z,10.45
2022-12-20T22:48:32.649Z,10.55
2022-12-20T22:51:03.217Z,10.88
2022-12-20T22:53:32.934Z,10.82
2022-12-20T22:56:00.901Z,11.05
2022-12-20T22:58:28.857Z,11.07
2022-12-20T23:00:57.806Z,10.38
2022-12-20T23:03:26.122Z,10.98
2022-12-20T23:05:55.060Z,11.30
2022-12-20T23:08:25.281Z,9.82
2022-12-20T23:11:10.467Z,10.98
2022-12-20T23:13:56.789Z,9.93
2022-12-20T23:16:25.641Z,10.43
2022-12-20T23:18:55.188Z,10.15
2022-12-20T23:21:40.844Z,9.75
2022-12-20T23:24:10.452Z,9.73
2022-12-20T23:26:39.228Z,10.38
2022-12-20T23:29:08.189Z,10.25
2022-12-20T23:31:36.303Z,9.63
2022-12-20T23:34:05.199Z,10.70
2022-12-20T23:36:33.634Z,9.38
2022-12-20T23:39:01.932Z,10.60
2022-12-20T23:41:31.243Z,10.05
2022-12-20T23:43:59.337Z,11.30
2022-12-20T23:46:27.712Z,10.38
2022-12-20T23:48:55.612Z,10.07
2022-12-20T23:51:23.662Z,9.38
2022-12-20T23:53:52.123Z,8.95
2022-12-20T23:56:21.354Z,9.23
2022-12-20T23:58:54.384Z,10.75
